createdAt,value
2023-05-24T00:02:23.878Z,95.08
2023-05-24T00:04:52.875Z,95.35
2023-05-24T00:07:21.038Z,95.73
2023-05-24T00:09:48.950Z,95.37
2023-05-24T00:12:16.877Z,95.38
2023-05-24T00:14:44.770Z,95.03
2023-05-24T00:17:12.872Z,95.48
2023-05-24T00:19:40.765Z,95.90
2023-05-24T00:22:08.638Z,95.87
2023-05-24T00:24:36.505Z,94.83
2023-05-24T00:27:04.615Z,94.26
2023-05-24T00:29:32.794Z,93.39
2023-05-24T00:32:01.624Z,92.39
2023-05-24T00:34:31.171Z,91.77
2023-05-24T00:36:59.012Z,91.09
2023-05-24T00:39:27.548Z,91.21
2023-05-24T00:41:55.365Z,91.05
2023-05-24T00:44:23.592Z,90.87
2023-05-24T00:46:51.541Z,91.91
2023-05-24T00:49:20.042Z,92.58
2023-05-24T00:51:49.017Z,92.36
2023-05-24T00:54:17.029Z,92.38
2023-05-24T00:56:45.703Z,92.72
2023-05-24T00:59:14.290Z,92.01
2023-05-24T01:01:43.018Z,91.84
2023-05-24T01:04:11.171Z,92.70
2023-05-24T01:07:07.655Z,91.66
2023-05-24T01:10:04.718Z,92.14
2023-05-24T01:13:01.727Z,92.64
2023-05-24T01:15:45.569Z,92.70
2023-05-24T01:18:31.586Z,92.78
2023-05-24T01:21:11.884Z,93.24
2023-05-24T01:24:13.165Z,93.09
2023-05-24T01:27:08.428Z,92.50
2023-05-24T01:29:37.602Z,92.37
2023-05-24T01:32:06.845Z,92.12
2023-05-24T01:34:34.800Z,92.10
2023-05-24T01:37:02.628Z,92.32
2023-05-24T01:39:30.948Z,92.05
2023-05-24T01:42:27.383Z,92.47
2023-05-24T01:45:06.140Z,92.88
2023-05-24T01:48:07.959Z,92.55
2023-05-24T01:50:49.589Z,93.15
2023-05-24T01:53:23.062Z,93.57
2023-05-24T01:55:56.529Z,92.83
2023-05-24T01:58:26.811Z,92.86
2023-05-24T02:00:55.725Z,93.10
2023-05-24T02:03:24.041Z,92.87
2023-05-24T02:05:52.022Z,92.14
2023-05-24T02:08:19.870Z,92.18
2023-05-24T02:10:47.742Z,92.76
2023-05-24T02:13:18.121Z,92.67
2023-05-24T02:15:46.565Z,92.47
2023-05-24T02:18:14.717Z,92.22
2023-05-24T02:20:43.484Z,92.60
2023-05-24T02:23:11.668Z,92.20
2023-05-24T02:25:39.495Z,92.18
2023-05-24T02:28:07.368Z,92.70
2023-05-24T02:30:35.289Z,92.97
2023-05-24T02:33:03.289Z,93.36
2023-05-24T02:35:33.196Z,93.33
2023-05-24T02:38:02.496Z,93.59
2023-05-24T02:40:30.332Z,93.60
2023-05-24T02:42:58.213Z,93.82
2023-05-24T02:45:26.038Z,94.27
2023-05-24T02:47:53.913Z,93.35
2023-05-24T02:50:21.896Z,92.84
2023-05-24T02:52:49.725Z,93.80
2023-05-24T02:55:18.170Z,93.19
2023-05-24T02:57:48.183Z,92.58
2023-05-24T03:00:18.537Z,92.88
2023-05-24T03:02:51.072Z,93.25
2023-05-24T03:05:19.334Z,93.04
2023-05-24T03:07:47.221Z,93.04
2023-05-24T03:10:16.703Z,93.04
2023-05-24T03:12:44.698Z,93.19
2023-05-24T03:15:12.590Z,93.11
2023-05-24T03:17:40.814Z,92.67
2023-05-24T03:20:09.305Z,93.22
2023-05-24T03:22:37.357Z,94.14
2023-05-24T03:25:08.740Z,94.23
2023-05-24T03:27:37.176Z,93.85
2023-05-24T03:30:06.722Z,93.80
2023-05-24T03:32:38.429Z,93.85
2023-05-24T03:35:06.502Z,94.30
2023-05-24T03:37:34.321Z,94.61
2023-05-24T03:40:04.533Z,94.77
2023-05-24T03:42:41.451Z,94.90
2023-05-24T03:45:10.650Z,94.00
2023-05-24T03:47:39.153Z,94.29
2023-05-24T03:50:07.673Z,94.61
2023-05-24T03:52:35.950Z,95.26
2023-05-24T03:55:05.658Z,95.38
2023-05-24T03:57:33.570Z,95.61
2023-05-24T04:00:01.448Z,96.21
2023-05-24T04:02:29.912Z,96.43
2023-05-24T04:04:57.913Z,97.40
2023-05-24T04:07:25.771Z,97.80
2023-05-24T04:09:54.116Z,97.80
2023-05-24T04:12:22.041Z,98.69
2023-05-24T04:14:49.955Z,97.80
2023-05-24T04:17:18.570Z,97.30
2023-05-24T04:19:46.801Z,97.92
2023-05-24T04:22:14.626Z,99.09
2023-05-24T04:24:42.730Z,98.70
2023-05-24T04:27:11.387Z,97.99
2023-05-24T04:29:42.291Z,98.42
2023-05-24T04:32:10.154Z,97.88
2023-05-24T04:34:42.562Z,98.03
2023-05-24T04:37:10.820Z,98.30
2023-05-24T04:39:39.253Z,98.28
2023-05-24T04:42:07.950Z,99.56
2023-05-24T04:44:35.867Z,99.64
2023-05-24T04:47:04.056Z,98.75
2023-05-24T04:49:32.080Z,98.23
2023-05-24T04:52:00.317Z,97.69
2023-05-24T04:54:28.139Z,97.98
2023-05-24T04:56:56.009Z,97.81
2023-05-24T04:59:24.560Z,97.55
2023-05-24T05:01:52.698Z,97.83
2023-05-24T05:04:20.656Z,99.22
2023-05-24T05:06:49.053Z,98.50
2023-05-24T05:09:17.336Z,97.71
2023-05-24T05:11:48.904Z,97.46
2023-05-24T05:14:22.526Z,97.19
2023-05-24T05:16:50.522Z,97.92
2023-05-24T05:19:18.886Z,98.90
2023-05-24T05:21:46.762Z,97.96
2023-05-24T05:24:16.633Z,97.48
2023-05-24T05:26:44.518Z,97.29
2023-05-24T05:29:12.366Z,96.69
2023-05-24T05:31:40.295Z,96.90
2023-05-24T05:34:10.064Z,97.26
2023-05-24T05:36:42.589Z,96.98
2023-05-24T05:39:10.526Z,95.59
2023-05-24T05:41:46.348Z,95.19
2023-05-24T05:44:14.888Z,94.78
2023-05-24T05:46:45.989Z,95.60
2023-05-24T05:49:15.194Z,95.35
2023-05-24T05:51:43.069Z,94.78
2023-05-24T05:54:15.433Z,94.11
2023-05-24T05:56:47.888Z,93.29
2023-05-24T05:59:16.016Z,92.60
2023-05-24T06:01:48.977Z,92.67
2023-05-24T06:04:17.536Z,92.86
2023-05-24T06:06:49.323Z,93.47
2023-05-24T06:09:17.447Z,93.23
2023-05-24T06:11:45.758Z,92.13
2023-05-24T06:14:19.655Z,91.24
2023-05-24T06:16:47.953Z,90.87
2023-05-24T06:19:16.804Z,91.40
2023-05-24T06:21:48.495Z,90.64
2023-05-24T06:24:21.623Z,89.69
2023-05-24T06:26:52.821Z,89.63
2023-05-24T06:29:21.809Z,90.03
2023-05-24T06:31:50.373Z,90.08
2023-05-24T06:34:23.016Z,89.64
2023-05-24T06:36:52.796Z,89.40
2023-05-24T06:39:20.878Z,89.33
2023-05-24T06:41:51.252Z,89.54
2023-05-24T06:44:25.339Z,88.87
2023-05-24T06:46:53.597Z,88.93
2023-05-24T06:49:22.392Z,88.64
2023-05-24T06:51:52.924Z,88.59
2023-05-24T06:54:21.599Z,88.73
2023-05-24T06:56:49.591Z,89.95
2023-05-24T06:59:17.523Z,89.50
2023-05-24T07:01:45.605Z,88.61
2023-05-24T07:04:13.830Z,88.91
2023-05-24T07:06:41.752Z,90.44
2023-05-24T07:09:10.458Z,88.77
2023-05-24T07:11:38.373Z,88.08
2023-05-24T07:14:08.409Z,87.57
2023-05-24T07:16:36.436Z,87.78
2023-05-24T07:19:05.086Z,87.80
2023-05-24T07:21:33.401Z,86.87
2023-05-24T07:24:03.925Z,86.36
2023-05-24T07:26:31.931Z,85.70
2023-05-24T07:28:59.945Z,85.50
2023-05-24T07:31:31.528Z,84.86
2023-05-24T07:34:02.294Z,86.23
2023-05-24T07:36:34.837Z,86.08
2023-05-24T07:39:06.218Z,83.82
2023-05-24T07:41:34.162Z,83.07
2023-05-24T07:44:02.608Z,83.19
2023-05-24T07:46:30.774Z,82.51
2023-05-24T07:48:58.830Z,83.65
2023-05-24T07:51:26.975Z,86.41
2023-05-24T07:54:03.346Z,84.13
2023-05-24T07:56:33.649Z,84.04
2023-05-24T07:59:04.663Z,84.45
2023-05-24T08:01:35.009Z,85.33
2023-05-24T08:04:06.118Z,84.29
2023-05-24T08:06:35.045Z,85.01
2023-05-24T08:09:04.456Z,84.93
2023-05-24T08:11:32.285Z,85.92
2023-05-24T08:14:00.160Z,85.24
2023-05-24T08:16:28.106Z,85.18
2023-05-24T08:18:59.352Z,84.61
2023-05-24T08:21:29.139Z,84.77
2023-05-24T08:23:57.123Z,85.00
2023-05-24T08:26:25.221Z,85.89
2023-05-24T08:28:53.218Z,86.27
2023-05-24T08:31:22.061Z,85.09
2023-05-24T08:33:56.217Z,84.90
2023-05-24T08:39:39.238Z,84.13
2023-05-24T08:42:09.191Z,83.52
2023-05-24T08:44:53.374Z,83.14
2023-05-24T08:47:24.726Z,83.62
2023-05-24T08:49:53.658Z,84.00
2023-05-24T08:52:22.818Z,85.55
2023-05-24T08:54:53.211Z,85.16
2023-05-24T08:57:22.494Z,84.13
2023-05-24T08:59:50.653Z,84.27
2023-05-24T09:02:18.929Z,85.10
2023-05-24T09:04:49.528Z,86.32
2023-05-24T09:07:19.541Z,85.64
2023-05-24T09:09:53.283Z,84.05
2023-05-24T09:12:35.381Z,84.00
2023-05-24T09:15:08.687Z,83.77
2023-05-24T09:17:38.604Z,85.84
2023-05-24T09:20:10.880Z,86.18
2023-05-24T09:22:42.836Z,86.66
2023-05-24T09:25:15.121Z,85.79
2023-05-24T09:27:54.231Z,84.60
2023-05-24T09:30:22.549Z,83.75
2023-05-24T09:33:01.920Z,84.08
2023-05-24T09:35:31.232Z,83.52
2023-05-24T09:38:00.114Z,85.24
2023-05-24T09:40:30.020Z,84.34
2023-05-24T09:43:09.801Z,85.12
2023-05-24T09:45:46.581Z,84.63
2023-05-24T09:48:18.075Z,84.53
2023-05-24T09:51:17.469Z,86.23
2023-05-24T09:53:50.310Z,85.27
2023-05-24T09:56:19.247Z,83.83
2023-05-24T09:58:47.199Z,83.25
2023-05-24T10:01:16.743Z,82.91
2023-05-24T10:03:55.737Z,83.33
2023-05-24T10:06:24.697Z,82.37
2023-05-24T10:08:54.436Z,82.03
2023-05-24T10:11:22.724Z,83.26
2023-05-24T10:13:51.209Z,84.37
2023-05-24T10:16:19.258Z,83.38
2023-05-24T10:18:47.423Z,83.00
2023-05-24T10:21:16.883Z,84.88
2023-05-24T10:23:48.781Z,84.72
2023-05-24T10:26:17.692Z,83.76
2023-05-24T10:28:53.005Z,83.32
2023-05-24T10:31:33.093Z,84.22
2023-05-24T10:36:53.145Z,86.72
2023-05-24T10:39:22.756Z,85.01
2023-05-24T10:41:50.198Z,86.19
2023-05-24T10:41:51.465Z,84.52
2023-05-24T10:44:22.569Z,84.90
2023-05-24T10:47:15.495Z,85.19
2023-05-24T10:49:53.059Z,84.67
2023-05-24T10:52:21.393Z,86.65
2023-05-24T10:55:11.704Z,87.19
2023-05-24T10:57:40.519Z,87.64
2023-05-24T11:00:35.128Z,88.26
2023-05-24T11:03:09.410Z,85.71
2023-05-24T11:05:47.951Z,84.69
2023-05-24T11:08:36.357Z,84.38
2023-05-24T11:11:24.632Z,83.22
2023-05-24T11:13:57.945Z,82.69
2023-05-24T11:16:40.499Z,82.08
2023-05-24T11:19:23.901Z,82.09
2023-05-24T11:21:53.907Z,83.07
2023-05-24T11:24:22.397Z,83.27
2023-05-24T11:26:52.111Z,80.37
2023-05-24T11:29:24.066Z,79.30
2023-05-24T11:31:58.015Z,79.10
2023-05-24T11:34:27.435Z,81.76
2023-05-24T11:36:55.724Z,80.81
2023-05-24T11:39:23.965Z,78.97
2023-05-24T11:41:54.337Z,79.49
2023-05-24T11:44:22.577Z,80.87
2023-05-24T11:47:00.349Z,82.18
2023-05-24T11:49:29.706Z,82.34
2023-05-24T11:51:59.659Z,84.15
2023-05-24T11:54:29.209Z,83.78
2023-05-24T11:56:57.983Z,82.11
2023-05-24T11:59:28.599Z,80.88
2023-05-24T12:02:03.641Z,81.05
2023-05-24T12:04:34.691Z,81.89
2023-05-24T12:07:03.360Z,79.45
2023-05-24T12:09:31.675Z,78.92
2023-05-24T12:11:59.815Z,78.38
2023-05-24T12:14:32.476Z,78.27
2023-05-24T12:17:03.418Z,77.82
2023-05-24T12:19:37.132Z,79.32
2023-05-24T12:22:07.733Z,77.83
2023-05-24T12:24:38.154Z,77.63
2023-05-24T12:27:10.167Z,77.03
2023-05-24T12:29:41.755Z,77.90
2023-05-24T12:32:15.507Z,79.47
2023-05-24T12:34:45.327Z,79.00
2023-05-24T12:37:15.363Z,79.79
2023-05-24T12:39:44.166Z,79.05
2023-05-24T12:42:16.136Z,78.97
2023-05-24T12:44:45.256Z,79.95
2023-05-24T12:47:13.464Z,79.40
2023-05-24T12:49:43.413Z,81.37
2023-05-24T12:52:12.699Z,82.31
2023-05-24T12:54:40.866Z,82.74
2023-05-24T12:57:09.088Z,83.87
2023-05-24T12:59:37.332Z,83.57
2023-05-24T13:02:05.323Z,83.65
2023-05-24T13:04:34.082Z,83.39
2023-05-24T13:07:03.179Z,82.79
2023-05-24T13:09:31.499Z,81.20
2023-05-24T13:11:59.394Z,82.20
2023-05-24T13:14:27.593Z,81.77
2023-05-24T13:16:55.602Z,81.30
2023-05-24T13:19:23.602Z,82.48
2023-05-24T13:21:51.495Z,82.48
2023-05-24T13:24:20.226Z,82.05
2023-05-24T13:26:48.120Z,80.49
2023-05-24T13:31:46.932Z,81.05
2023-05-24T13:34:14.931Z,80.96
2023-05-24T13:36:43.534Z,81.04
2023-05-24T13:39:16.118Z,81.03
2023-05-24T13:41:45.149Z,80.73
2023-05-24T13:44:16.607Z,81.85
2023-05-24T13:46:44.780Z,82.81
2023-05-24T13:49:12.902Z,82.26
2023-05-24T13:51:40.906Z,80.58
2023-05-24T13:54:09.216Z,81.00
2023-05-24T13:56:38.476Z,80.81
2023-05-24T13:59:07.243Z,82.92
2023-05-24T14:01:39.324Z,81.40
2023-05-24T14:04:07.881Z,82.82
2023-05-24T14:06:37.758Z,82.75
2023-05-24T14:09:09.005Z,82.64
2023-05-24T14:11:37.232Z,82.06
2023-05-24T14:16:37.083Z,82.46
2023-05-24T14:19:05.763Z,82.98
2023-05-24T14:21:33.686Z,84.80
2023-05-24T14:24:01.691Z,84.51
2023-05-24T14:26:29.598Z,84.43
2023-05-24T14:28:57.449Z,84.18
2023-05-24T14:31:25.417Z,83.04
2023-05-24T14:33:53.456Z,83.68
2023-05-24T14:36:21.964Z,84.17
2023-05-24T14:38:49.862Z,84.01
2023-05-24T14:41:17.973Z,83.33
2023-05-24T14:43:46.035Z,83.77
2023-05-24T14:46:13.879Z,83.62
2023-05-24T14:48:41.885Z,84.79
2023-05-24T14:51:09.802Z,85.80
2023-05-24T14:53:37.712Z,84.63
2023-05-24T14:56:08.186Z,84.72
2023-05-24T14:58:36.288Z,84.13
2023-05-24T15:01:04.356Z,84.61
2023-05-24T15:03:32.886Z,84.55
2023-05-24T15:06:02.437Z,83.59
2023-05-24T15:08:30.716Z,83.65
2023-05-24T15:10:59.338Z,82.44
2023-05-24T15:13:27.420Z,83.85
2023-05-24T15:15:56.799Z,83.79
2023-05-24T15:18:27.318Z,83.15
2023-05-24T15:20:56.122Z,83.47
2023-05-24T15:23:24.830Z,83.45
2023-05-24T15:25:52.897Z,83.51
2023-05-24T15:28:20.988Z,84.46
2023-05-24T15:30:49.110Z,83.91
2023-05-24T15:33:17.323Z,82.93
2023-05-24T15:35:45.731Z,83.56
2023-05-24T15:38:14.458Z,84.14
2023-05-24T15:40:42.433Z,83.00
2023-05-24T15:43:11.004Z,83.46
2023-05-24T15:45:38.882Z,83.97
2023-05-24T15:48:06.776Z,84.95
2023-05-24T15:50:53.956Z,85.17
2023-05-24T15:53:25.397Z,84.80
2023-05-24T15:55:55.466Z,84.35
2023-05-24T15:58:23.546Z,83.68
2023-05-24T16:00:52.749Z,84.70
2023-05-24T16:03:20.977Z,85.60
2023-05-24T16:05:49.504Z,86.37
2023-05-24T16:08:17.910Z,86.16
2023-05-24T16:10:45.932Z,85.83
2023-05-24T16:13:14.634Z,86.19
2023-05-24T16:15:42.634Z,86.85
2023-05-24T16:18:10.861Z,86.59
2023-05-24T16:20:39.150Z,86.80
2023-05-24T16:23:07.282Z,86.87
2023-05-24T16:25:35.543Z,87.13
2023-05-24T16:28:03.672Z,86.92
2023-05-24T16:30:32.288Z,86.96
2023-05-24T16:33:00.267Z,86.41
2023-05-24T16:35:28.304Z,86.38
2023-05-24T16:37:56.574Z,86.32
2023-05-24T16:40:24.711Z,87.03
2023-05-24T16:42:54.267Z,86.54
2023-05-24T16:45:22.500Z,86.71
2023-05-24T16:47:51.337Z,86.67
2023-05-24T16:50:19.881Z,86.85
2023-05-24T16:52:48.391Z,86.32
2023-05-24T16:55:16.483Z,85.20
2023-05-24T16:57:48.449Z,84.57
2023-05-24T17:00:17.323Z,84.68
2023-05-24T17:02:45.667Z,85.47
2023-05-24T17:05:13.842Z,86.35
2023-05-24T17:07:42.947Z,86.35
2023-05-24T17:10:11.616Z,86.59
2023-05-24T17:12:40.058Z,86.08
2023-05-24T17:15:08.934Z,86.18
2023-05-24T17:17:36.854Z,86.16
2023-05-24T17:20:05.862Z,87.13
2023-05-24T17:22:34.581Z,87.46
2023-05-24T17:25:03.036Z,87.46
2023-05-24T17:27:31.603Z,86.76
2023-05-24T17:30:00.453Z,86.34
2023-05-24T17:32:28.699Z,87.39
2023-05-24T17:34:57.087Z,88.15
2023-05-24T17:37:25.489Z,88.99
2023-05-24T17:39:53.803Z,89.60
2023-05-24T17:42:23.034Z,89.48
2023-05-24T17:44:51.548Z,89.19
2023-05-24T17:47:19.741Z,89.98
2023-05-24T17:49:48.102Z,89.64
2023-05-24T17:52:16.423Z,89.39
2023-05-24T17:54:45.437Z,89.38
2023-05-24T17:57:13.563Z,89.61
2023-05-24T17:59:41.584Z,89.99
2023-05-24T18:02:09.852Z,89.70
2023-05-24T18:04:38.076Z,89.79
2023-05-24T18:07:06.976Z,90.72
2023-05-24T18:09:35.754Z,90.48
2023-05-24T18:12:04.297Z,90.38
2023-05-24T18:14:33.122Z,90.83
2023-05-24T18:17:01.826Z,90.84
2023-05-24T18:19:31.116Z,90.87
2023-05-24T18:21:59.583Z,90.78
2023-05-24T18:24:28.117Z,91.39
2023-05-24T18:26:57.449Z,91.46
2023-05-24T18:29:28.121Z,91.07
2023-05-24T18:31:56.402Z,91.01
2023-05-24T18:34:24.587Z,91.27
2023-05-24T18:36:54.585Z,91.81
2023-05-24T18:39:22.449Z,91.23
2023-05-24T18:41:52.265Z,91.16
2023-05-24T18:44:21.376Z,92.08
2023-05-24T18:46:49.908Z,92.32
2023-05-24T18:49:17.928Z,91.89
2023-05-24T18:51:46.160Z,91.57
2023-05-24T18:54:18.945Z,91.07
2023-05-24T18:56:50.775Z,91.37
2023-05-24T18:59:21.455Z,91.28
2023-05-24T19:01:49.834Z,91.43
2023-05-24T19:04:17.705Z,91.04
2023-05-24T19:06:45.842Z,91.57
2023-05-24T19:09:15.553Z,91.65
2023-05-24T19:11:47.451Z,91.57
2023-05-24T19:14:20.081Z,91.75
2023-05-24T19:16:49.227Z,91.83
2023-05-24T19:19:20.115Z,91.92
2023-05-24T19:21:48.580Z,92.88
2023-05-24T19:24:17.616Z,93.29
2023-05-24T19:26:46.706Z,93.23
2023-05-24T19:29:16.290Z,93.47
2023-05-24T19:31:46.625Z,93.63
2023-05-24T19:34:15.027Z,93.10
2023-05-24T19:36:43.429Z,92.80
2023-05-24T19:39:12.228Z,92.42
2023-05-24T19:41:40.186Z,92.58
2023-05-24T19:44:08.406Z,93.19
2023-05-24T19:46:37.482Z,93.53
2023-05-24T19:49:06.637Z,93.92
2023-05-24T19:51:34.961Z,94.11
2023-05-24T19:54:03.004Z,94.06
2023-05-24T19:56:31.985Z,93.57
2023-05-24T19:59:01.174Z,93.50
2023-05-24T20:01:31.675Z,93.70
2023-05-24T20:04:00.199Z,94.12
2023-05-24T20:06:29.432Z,94.63
2023-05-24T20:09:00.431Z,94.59
2023-05-24T20:11:29.468Z,94.37
2023-05-24T20:13:58.842Z,94.56
2023-05-24T20:16:27.393Z,94.40
2023-05-24T20:18:56.378Z,94.01
2023-05-24T20:21:24.685Z,94.46
2023-05-24T20:23:58.131Z,94.73
2023-05-24T20:26:28.724Z,94.47
2023-05-24T20:28:57.814Z,94.49
2023-05-24T20:31:27.657Z,95.46
2023-05-24T20:33:55.843Z,95.05
2023-05-24T20:36:24.571Z,94.93
2023-05-24T20:38:53.398Z,95.89
2023-05-24T20:41:21.319Z,96.19
2023-05-24T20:43:51.450Z,96.01
2023-05-24T20:46:20.149Z,95.92
2023-05-24T20:48:48.202Z,95.53
2023-05-24T20:51:16.104Z,94.56
2023-05-24T20:53:45.673Z,94.92
2023-05-24T20:56:13.557Z,95.03
2023-05-24T20:58:41.577Z,94.92
2023-05-24T21:01:09.543Z,94.24
2023-05-24T21:03:37.598Z,94.36
2023-05-24T21:06:05.536Z,94.40
2023-05-24T21:08:33.442Z,94.07
2023-05-24T21:11:01.311Z,94.19
2023-05-24T21:13:30.286Z,94.67
2023-05-24T21:15:58.253Z,94.79
2023-05-24T21:18:26.247Z,93.78
2023-05-24T21:20:54.214Z,93.51
2023-05-24T21:23:22.200Z,93.42
2023-05-24T21:25:50.051Z,93.97
2023-05-24T21:28:18.075Z,93.59
2023-05-24T21:30:45.892Z,93.59
2023-05-24T21:33:13.794Z,93.69
2023-05-24T21:35:42.113Z,93.84
2023-05-24T21:38:10.250Z,93.82
2023-05-24T21:40:40.033Z,94.02
2023-05-24T21:43:12.135Z,93.94
2023-05-24T21:45:40.013Z,93.92
2023-05-24T21:48:08.845Z,94.46
2023-05-24T21:50:36.891Z,94.41
2023-05-24T21:53:04.751Z,94.26
2023-05-24T21:55:32.599Z,94.36
2023-05-24T21:58:00.483Z,94.85
2023-05-24T22:00:28.342Z,94.71
2023-05-24T22:02:56.295Z,94.60
2023-05-24T22:05:25.554Z,94.60
2023-05-24T22:07:55.459Z,94.93
2023-05-24T22:10:23.387Z,94.76
2023-05-24T22:12:51.312Z,94.63
2023-05-24T22:15:19.281Z,94.87
2023-05-24T22:17:48.113Z,95.07
2023-05-24T22:20:16.960Z,95.19
2023-05-24T22:22:53.672Z,94.74
2023-05-24T22:25:22.093Z,94.67
2023-05-24T22:27:50.512Z,94.77
2023-05-24T22:30:18.540Z,94.71
2023-05-24T22:32:46.548Z,94.81
2023-05-24T22:35:14.630Z,94.69
2023-05-24T22:37:42.661Z,94.67
2023-05-24T22:40:12.394Z,94.93
2023-05-24T22:42:40.752Z,94.93
2023-05-24T22:45:09.480Z,94.79
2023-05-24T22:47:39.892Z,94.96
2023-05-24T22:50:08.911Z,95.21
2023-05-24T22:52:42.260Z,95.17
2023-05-24T22:55:10.981Z,95.01
2023-05-24T22:57:38.867Z,94.96
2023-05-24T23:00:11.662Z,95.07
2023-05-24T23:02:39.523Z,95.27
2023-05-24T23:05:09.458Z,94.99
2023-05-24T23:07:38.088Z,95.23
2023-05-24T23:10:07.987Z,95.43
2023-05-24T23:12:36.041Z,95.61
2023-05-24T23:15:04.534Z,95.31
2023-05-24T23:17:32.521Z,95.27
2023-05-24T23:20:00.522Z,95.32
2023-05-24T23:22:29.737Z,95.44
2023-05-24T23:26:13.854Z,95.16
2023-05-24T23:29:00.801Z,96.23
2023-05-24T23:31:28.772Z,95.71
2023-05-24T23:33:56.700Z,95.05
2023-05-24T23:36:24.826Z,95.21
2023-05-24T23:38:52.664Z,95.33
2023-05-24T23:41:20.550Z,95.33
2023-05-24T23:43:48.534Z,95.75
2023-05-24T23:46:17.216Z,95.44
2023-05-24T23:48:45.499Z,95.47
2023-05-24T23:51:13.382Z,95.27
2023-05-24T23:53:41.261Z,95.73
2023-05-24T23:56:09.159Z,95.58
2023-05-24T23:58:37.645Z,95.14
